createdAt,value
2022-10-26T00:00:51.204Z,11.2
2022-10-26T00:02:55.212Z,10.3
2022-10-26T00:04:58.981Z,11.4
2022-10-26T00:07:02.853Z,11.6
2022-10-26T00:09:06.736Z,10.1
2022-10-26T00:11:10.648Z,11.7
2022-10-26T00:13:17.313Z,12.5
2022-10-26T00:15:21.219Z,11
2022-10-26T00:17:25.177Z,10.5
2022-10-26T00:19:29.065Z,11.3
2022-10-26T00:23:36.793Z,13.1
2022-10-26T00:25:40.680Z,10.2
2022-10-26T00:29:51.237Z,13.1
2022-10-26T00:31:55.130Z,12.2
2022-10-26T00:32:58.457Z,13.2
2022-10-26T00:35:10.632Z,11
2022-10-26T00:37:06.199Z,12.3
2022-10-26T00:39:10.189Z,12.2
2022-10-26T00:43:20.845Z,11.9
2022-10-26T00:47:28.586Z,11.4
2022-10-26T00:49:32.492Z,12.5
2022-10-26T00:53:40.226Z,14.5
2022-10-26T00:57:50.900Z,13.4
2022-10-26T00:59:54.763Z,12.7
2022-10-26T01:01:58.649Z,12.9
2022-10-26T01:04:02.586Z,13.6
2022-10-26T01:08:10.256Z,13.5
2022-10-26T01:12:20.923Z,13.8
2022-10-26T01:14:24.815Z,13.5
2022-10-26T01:16:28.700Z,13.2
2022-10-26T01:18:32.550Z,12.5
2022-10-26T01:20:36.428Z,13.1
2022-10-26T01:22:40.330Z,12.7
2022-10-26T01:24:46.990Z,14.4
2022-10-26T01:28:54.735Z,11.5
2022-10-26T01:29:58.082Z,13.5
2022-10-26T01:32:01.975Z,14.5
2022-10-26T01:34:05.823Z,12
2022-10-26T01:36:09.707Z,13.6
2022-10-26T01:38:16.394Z,13.9
2022-10-26T01:40:20.360Z,11.8
2022-10-26T01:42:24.223Z,12.7
2022-10-26T01:44:28.105Z,14.2
2022-10-26T01:46:31.999Z,13.8
2022-10-26T01:48:35.849Z,12.3
2022-10-26T01:50:39.711Z,14.1
2022-10-26T01:52:46.402Z,14.6
2022-10-26T01:54:50.283Z,11.6
2022-10-26T01:56:54.152Z,13.6
2022-10-26T01:58:58.019Z,12.6
2022-10-26T02:01:01.911Z,12
2022-10-26T02:03:05.802Z,11.7
2022-10-26T02:09:20.235Z,12.8
2022-10-26T02:11:24.091Z,13.1
2022-10-26T02:13:27.984Z,12.8
2022-10-26T02:15:31.858Z,11.9
2022-10-26T02:17:35.708Z,11.1
2022-10-26T02:19:39.611Z,13.4
2022-10-26T02:21:46.310Z,13.7
2022-10-26T02:23:50.186Z,13.3
2022-10-26T02:25:54.091Z,10.6
2022-10-26T02:26:57.409Z,13.1
2022-10-26T02:29:01.312Z,11
2022-10-26T02:31:05.360Z,11.8
2022-10-26T02:33:09.042Z,12.5
2022-10-26T02:35:15.762Z,12.3
2022-10-26T02:37:19.646Z,11.6
2022-10-26T02:39:23.536Z,10.9
2022-10-26T02:41:27.409Z,11.9
2022-10-26T02:45:35.170Z,11.6
2022-10-26T02:47:39.056Z,10.5
2022-10-26T02:49:45.758Z,12.4
2022-10-26T02:51:49.646Z,10.8
2022-10-26T02:53:53.519Z,11.2
2022-10-26T02:55:57.412Z,10.1
2022-10-26T02:58:01.297Z,10.7
2022-10-26T03:00:05.225Z,11.4
2022-10-26T03:02:09.040Z,10.9
2022-10-26T03:04:15.803Z,10.8
2022-10-26T03:06:19.623Z,10
2022-10-26T03:08:23.555Z,12
2022-10-26T03:10:27.385Z,10.8
2022-10-26T03:12:31.281Z,10.9
2022-10-26T03:14:35.050Z,10.8
2022-10-26T03:16:38.968Z,10.7
2022-10-26T03:18:45.628Z,10.2
2022-10-26T03:20:49.523Z,11.7
2022-10-26T03:22:53.397Z,10.3
2022-10-26T03:25:17.366Z,11.5
2022-10-26T03:27:21.227Z,10.8
2022-10-26T03:29:25.130Z,11.6
2022-10-26T03:31:31.848Z,11.2
2022-10-26T03:33:35.725Z,11.5
2022-10-26T03:35:39.706Z,11.7
2022-10-26T03:37:43.591Z,11.3
2022-10-26T03:39:47.479Z,10.4
2022-10-26T03:41:51.406Z,9.9
2022-10-26T03:43:55.271Z,9.4
2022-10-26T03:46:01.973Z,10.7
2022-10-26T03:48:05.881Z,9.6
2022-10-26T03:50:09.850Z,9.4
2022-10-26T03:52:13.752Z,10
2022-10-26T03:54:17.638Z,11.3
2022-10-26T03:56:21.528Z,11.2
2022-10-26T04:00:32.135Z,10.1
2022-10-26T04:04:39.974Z,9.9
2022-10-26T04:06:43.838Z,9.4
2022-10-26T04:08:47.720Z,9.9
2022-10-26T04:10:51.617Z,10.7
2022-10-26T04:12:55.508Z,11.4
2022-10-26T04:17:06.094Z,11
2022-10-26T04:19:10.008Z,9.7
2022-10-26T04:22:17.360Z,10.9
2022-10-26T04:24:21.259Z,10.4
2022-10-26T04:26:25.159Z,10.1
2022-10-26T04:28:31.889Z,10.9
2022-10-26T04:30:35.857Z,8.3
2022-10-26T04:32:39.782Z,11.4
2022-10-26T04:34:43.646Z,7.9
2022-10-26T04:36:47.568Z,10.3
2022-10-26T04:38:51.563Z,8.6
2022-10-26T04:40:55.457Z,8.7
2022-10-26T04:43:02.156Z,10.4
2022-10-26T04:45:06.058Z,9.9
2022-10-26T04:47:09.975Z,9.3
2022-10-26T04:49:13.970Z,8.8
2022-10-26T04:51:17.862Z,8.7
2022-10-26T04:53:21.744Z,8.6
2022-10-26T04:55:25.656Z,10.1
2022-10-26T04:57:32.377Z,9.8
2022-10-26T04:59:36.272Z,8.7
2022-10-26T05:01:40.232Z,10.3
2022-10-26T05:03:44.055Z,8.7
2022-10-26T05:05:47.948Z,9.6
2022-10-26T05:09:55.773Z,7
2022-10-26T05:14:06.348Z,9
2022-10-26T05:17:13.613Z,11.9
2022-10-26T05:19:17.520Z,10
2022-10-26T05:21:21.428Z,8.7
2022-10-26T05:23:25.326Z,7.5
2022-10-26T05:25:32.044Z,7.6
2022-10-26T05:27:35.948Z,7
2022-10-26T05:29:39.847Z,7.5
2022-10-26T05:31:43.753Z,8.5
2022-10-26T05:33:47.652Z,8.8
2022-10-26T05:35:51.645Z,9.2
2022-10-26T05:37:55.556Z,7.2
2022-10-26T05:40:02.273Z,8.4
2022-10-26T05:42:06.141Z,9.9
2022-10-26T05:44:10.076Z,8
2022-10-26T05:46:13.968Z,8.3
2022-10-26T05:50:23.206Z,8
2022-10-26T05:52:27.115Z,8.4
2022-10-26T05:54:33.799Z,10.3
2022-10-26T05:58:41.610Z,9.4
2022-10-26T06:00:45.507Z,9.4
2022-10-26T06:04:53.286Z,8.5
2022-10-26T06:06:57.189Z,8.7
2022-10-26T06:09:03.901Z,9.6
2022-10-26T06:11:07.794Z,9.6
2022-10-26T06:13:11.696Z,7.8
2022-10-26T06:14:15.042Z,9.4
2022-10-26T06:16:18.927Z,9.5
2022-10-26T06:18:22.845Z,8.8
2022-10-26T06:20:26.736Z,9.2
2022-10-26T06:22:33.444Z,9
2022-10-26T06:24:37.370Z,7.8
2022-10-26T06:26:41.233Z,8.8
2022-10-26T06:28:47.404Z,9.1
2022-10-26T06:30:49.034Z,8.2
2022-10-26T06:33:01.104Z,9.1
2022-10-26T06:34:56.836Z,8
2022-10-26T06:37:03.646Z,9.3
2022-10-26T06:39:07.544Z,9.9
2022-10-26T06:41:11.430Z,9.1
2022-10-26T06:43:15.331Z,8.1
2022-10-26T06:45:19.265Z,8.2
2022-10-26T06:47:23.642Z,8.5
2022-10-26T06:49:27.020Z,8.3
2022-10-26T06:51:33.715Z,8.6
2022-10-26T06:53:37.613Z,8.4
2022-10-26T06:55:41.658Z,9.4
2022-10-26T06:57:45.415Z,8
2022-10-26T06:59:49.317Z,9.2
2022-10-26T07:01:53.310Z,9.3
2022-10-26T07:03:57.210Z,9
2022-10-26T07:06:03.894Z,10
2022-10-26T07:08:07.793Z,9
2022-10-26T07:10:11.708Z,10.5
2022-10-26T07:12:33.851Z,11.8
2022-10-26T07:14:37.755Z,11.3
2022-10-26T07:16:41.661Z,9.7
2022-10-26T07:20:52.303Z,10.4
2022-10-26T07:22:56.205Z,14
2022-10-26T07:25:02.881Z,11.4
2022-10-26T07:27:04.024Z,10.2
2022-10-26T07:29:07.895Z,9.7
2022-10-26T07:31:11.810Z,10.5
2022-10-26T07:33:18.537Z,11.5
2022-10-26T07:39:30.243Z,11.2
2022-10-26T07:41:34.156Z,10.9
2022-10-26T07:45:42.105Z,8.5
2022-10-26T07:47:48.694Z,8.3
2022-10-26T07:49:52.581Z,8.6
2022-10-26T07:54:00.388Z,7.9
2022-10-26T07:56:04.311Z,8.6
2022-10-26T07:58:08.216Z,8.5
2022-10-26T08:00:12.137Z,7.8
2022-10-26T08:02:18.836Z,9.1
2022-10-26T08:04:22.745Z,12.7
2022-10-26T08:06:26.644Z,9.4
2022-10-26T08:07:29.995Z,11.1
2022-10-26T08:09:33.918Z,9.5
2022-10-26T08:11:37.832Z,8.6
2022-10-26T08:13:41.786Z,6.9
2022-10-26T08:15:48.493Z,6.9
2022-10-26T08:17:52.749Z,7.4
2022-10-26T08:19:56.376Z,6.5
2022-10-26T08:22:00.284Z,6.1
2022-10-26T08:24:04.229Z,5
2022-10-26T08:26:08.141Z,4.5
2022-10-26T08:28:12.080Z,4.2
2022-10-26T08:30:18.851Z,4.4
2022-10-26T08:32:22.782Z,4.9
2022-10-26T08:34:26.722Z,4.6
2022-10-26T08:36:30.644Z,4.8
2022-10-26T08:38:34.591Z,4.6
2022-10-26T08:40:38.521Z,4.4
2022-10-26T08:42:42.468Z,4.1
2022-10-26T08:44:49.222Z,5
2022-10-26T08:46:53.184Z,3.5
2022-10-26T08:48:57.108Z,4.9
2022-10-26T08:51:01.041Z,3.8
2022-10-26T08:53:04.989Z,3.3
2022-10-26T08:55:08.924Z,4.2
2022-10-26T08:57:12.862Z,3.9
2022-10-26T08:59:19.625Z,3.5
2022-10-26T09:01:23.690Z,2.8
2022-10-26T09:03:27.482Z,3.4
2022-10-26T09:04:30.868Z,2.3
2022-10-26T09:06:34.811Z,2.5
2022-10-26T09:08:38.752Z,2.7
2022-10-26T09:10:42.690Z,3
2022-10-26T09:12:49.571Z,3.1
2022-10-26T09:14:53.386Z,2.2
2022-10-26T09:16:57.327Z,1.8
2022-10-26T09:19:02.870Z,1.6
2022-10-26T09:21:05.205Z,2.2
2022-10-26T09:23:09.127Z,1.1
2022-10-26T09:25:13.051Z,1.6
2022-10-26T09:27:19.827Z,1.1
2022-10-26T09:29:23.746Z,1.7
2022-10-26T09:31:27.686Z,1.3
2022-10-26T09:33:31.613Z,1.2
2022-10-26T09:35:35.549Z,0.9
2022-10-26T09:37:39.487Z,1.5
2022-10-26T09:39:43.392Z,1.7
2022-10-26T09:41:50.177Z,2.1
2022-10-26T09:43:54.092Z,1.8
2022-10-26T09:45:58.074Z,1.2
2022-10-26T09:48:05.161Z,1.8
2022-10-26T09:50:05.885Z,1.5
2022-10-26T09:54:13.680Z,1.1
2022-10-26T09:56:20.437Z,0.9
2022-10-26T10:01:31.699Z,2.6
2022-10-26T10:03:35.564Z,1.3
2022-10-26T10:05:50.803Z,1.9
2022-10-26T10:07:43.390Z,1.4
2022-10-26T10:09:50.112Z,0.9
2022-10-26T10:11:54.037Z,1.4
2022-10-26T10:13:57.936Z,1.2
2022-10-26T10:16:01.850Z,1.3
2022-10-26T10:18:05.788Z,0.8
2022-10-26T10:20:09.663Z,1.2
2022-10-26T10:22:13.565Z,1.3
2022-10-26T10:26:24.219Z,3.1
2022-10-26T10:30:32.071Z,2.3
2022-10-26T10:32:39.223Z,1.9
2022-10-26T10:34:39.915Z,1.8
2022-10-26T10:36:43.798Z,6.3
2022-10-26T10:38:50.550Z,1.6
2022-10-26T10:40:54.448Z,1.5
2022-10-26T10:42:58.363Z,1.8
2022-10-26T10:45:02.467Z,1.6
2022-10-26T10:47:06.226Z,2.3
2022-10-26T10:49:10.115Z,4.7
2022-10-26T10:51:14.018Z,1.8
2022-10-26T10:53:20.766Z,4
2022-10-26T10:55:24.685Z,3.7
2022-10-26T10:57:28.589Z,1.5
2022-10-26T10:59:58.132Z,2.1
2022-10-26T11:04:06.053Z,2.6
2022-10-26T11:06:12.706Z,2.6
2022-10-26T11:08:16.598Z,2.6
2022-10-26T11:10:20.518Z,1.8
2022-10-26T11:12:24.452Z,2
2022-10-26T11:14:28.325Z,2.7
2022-10-26T11:16:32.223Z,2.7
2022-10-26T11:18:36.122Z,1.9
2022-10-26T11:20:42.872Z,1.4
2022-10-26T11:22:46.907Z,2.3
2022-10-26T11:24:50.676Z,3
2022-10-26T11:26:54.580Z,1.4
2022-10-26T11:28:58.483Z,2.1
2022-10-26T11:31:02.391Z,1.4
2022-10-26T11:33:06.314Z,1.9
2022-10-26T11:35:13.057Z,1.8
2022-10-26T11:37:16.938Z,1.7
2022-10-26T11:39:20.868Z,2.2
2022-10-26T11:41:24.774Z,1.5
2022-10-26T11:43:28.691Z,2.3
2022-10-26T11:45:34.103Z,2.3
2022-10-26T11:47:37.985Z,3.1
2022-10-26T11:49:44.728Z,2.5
2022-10-26T11:53:52.572Z,3.7
2022-10-26T11:54:55.933Z,2.1
2022-10-26T11:56:59.848Z,2.5
2022-10-26T11:59:03.793Z,2.4
2022-10-26T12:01:07.752Z,2.3
2022-10-26T12:05:18.364Z,3.3
2022-10-26T12:07:22.271Z,2.2
2022-10-26T12:09:26.195Z,1.9
2022-10-26T12:11:30.129Z,2.3
2022-10-26T12:13:34.051Z,2.4
2022-10-26T12:16:01.769Z,2.8
2022-10-26T12:17:44.719Z,2.3
2022-10-26T12:19:48.640Z,1.8
2022-10-26T12:21:52.571Z,1.9
2022-10-26T12:23:56.514Z,2.6
2022-10-26T12:26:00.442Z,2.7
2022-10-26T12:28:04.372Z,2.2
2022-10-26T12:30:08.303Z,2.7
2022-10-26T12:32:15.073Z,2
2022-10-26T12:34:18.991Z,2.9
2022-10-26T12:38:30.318Z,2.6
2022-10-26T12:40:30.760Z,3.4
2022-10-26T12:42:34.680Z,3
2022-10-26T12:44:38.600Z,3.8
2022-10-26T12:46:45.582Z,2.9
2022-10-26T12:48:49.281Z,2.8
2022-10-26T12:50:53.223Z,2.9
2022-10-26T12:51:56.648Z,3.7
2022-10-26T12:54:00.526Z,2.9
2022-10-26T12:56:04.459Z,3.5
2022-10-26T12:58:08.404Z,3
2022-10-26T13:00:15.144Z,3.2
2022-10-26T13:02:19.089Z,3.5
2022-10-26T13:04:23.002Z,3.4
2022-10-26T13:06:26.925Z,3.3
2022-10-26T13:08:30.860Z,3.5
2022-10-26T13:10:34.775Z,3.2
2022-10-26T13:12:38.709Z,3.8
2022-10-26T13:14:45.469Z,2.3
2022-10-26T13:16:49.387Z,2.9
2022-10-26T13:18:53.339Z,2.9
2022-10-26T13:20:57.235Z,2.1
2022-10-26T13:25:05.089Z,2.5
2022-10-26T13:27:09.022Z,2.5
2022-10-26T13:29:15.775Z,3
2022-10-26T13:31:19.700Z,2.7
2022-10-26T13:33:23.623Z,3.1
2022-10-26T13:35:27.718Z,2.2
2022-10-26T13:37:31.458Z,3.2
2022-10-26T13:39:35.396Z,2.1
2022-10-26T13:41:40.081Z,3.2
2022-10-26T13:43:46.865Z,2.5
2022-10-26T13:45:50.763Z,2.5
2022-10-26T13:47:55.317Z,3.1
2022-10-26T13:53:06.548Z,2
2022-10-26T13:55:10.470Z,1.8
2022-10-26T13:57:17.240Z,1.6
2022-10-26T13:59:21.174Z,2.1
2022-10-26T14:01:25.239Z,2.2
2022-10-26T14:03:29.018Z,2.6
2022-10-26T14:05:33.095Z,3.2
2022-10-26T14:07:36.938Z,2.5
2022-10-26T14:09:40.821Z,2
2022-10-26T14:11:47.567Z,1.8
2022-10-26T14:13:51.496Z,2
2022-10-26T14:15:55.442Z,2.7
2022-10-26T14:17:59.352Z,2.8
2022-10-26T14:22:07.237Z,3
2022-10-26T14:24:11.187Z,2.2
2022-10-26T14:26:20.243Z,3.8
2022-10-26T14:28:21.863Z,3.4
2022-10-26T14:30:25.799Z,2.1
2022-10-26T14:32:29.741Z,3.4
2022-10-26T14:34:33.638Z,3.5
2022-10-26T14:36:37.595Z,2.8
2022-10-26T14:38:41.523Z,2.8
2022-10-26T14:40:48.284Z,3
2022-10-26T14:44:56.164Z,3.8
2022-10-26T14:47:26.085Z,3
2022-10-26T14:49:30.056Z,3.6
2022-10-26T14:51:33.953Z,2.8
2022-10-26T14:53:40.741Z,3.1
2022-10-26T14:55:44.791Z,3.4
2022-10-26T14:57:48.598Z,3.4
2022-10-26T14:59:52.529Z,4.3
2022-10-26T15:01:56.609Z,3.4
2022-10-26T15:04:00.396Z,3.4
2022-10-26T15:08:13.824Z,2.8
2022-10-26T15:10:15.020Z,3.6
2022-10-26T15:12:18.953Z,3.9
2022-10-26T15:14:22.891Z,4.2
2022-10-26T15:16:26.842Z,4.2
2022-10-26T15:18:30.748Z,4.3
2022-10-26T15:20:34.682Z,5.2
2022-10-26T15:22:41.437Z,3.9
2022-10-26T15:24:45.389Z,5.2
2022-10-26T15:26:49.300Z,4.1
2022-10-26T15:28:53.247Z,3.9
2022-10-26T15:31:00.561Z,7.8
2022-10-26T15:33:01.105Z,8.4
2022-10-26T15:35:05.051Z,4.7
2022-10-26T15:37:11.825Z,4.8
2022-10-26T15:39:15.730Z,4.8
2022-10-26T15:41:19.685Z,5.3
2022-10-26T15:42:23.049Z,5.1
2022-10-26T15:44:26.972Z,5.8
2022-10-26T15:46:30.914Z,4.3
2022-10-26T15:48:34.902Z,4.8
2022-10-26T15:50:41.599Z,4.6
2022-10-26T15:52:48.344Z,4
2022-10-26T15:54:49.449Z,8
2022-10-26T15:56:53.534Z,4.5
2022-10-26T15:58:57.331Z,3.6
2022-10-26T16:01:01.327Z,4.9
2022-10-26T16:05:11.943Z,5.5
2022-10-26T16:07:15.891Z,4.6
2022-10-26T16:09:19.824Z,5.6
2022-10-26T16:11:23.777Z,4.5
2022-10-26T16:13:27.670Z,4.2
2022-10-26T16:19:42.321Z,4.6
2022-10-26T16:27:58.049Z,3.9
2022-10-26T16:30:02.022Z,6.4
2022-10-26T16:32:05.923Z,5.9
2022-10-26T16:36:16.624Z,5.8
2022-10-26T16:38:20.563Z,6.4
2022-10-26T16:39:23.944Z,5.6
2022-10-26T16:41:27.870Z,4.8
2022-10-26T16:43:31.812Z,5.2
2022-10-26T16:45:35.762Z,4.8
2022-10-26T16:47:42.509Z,6
2022-10-26T16:49:46.455Z,5.8
2022-10-26T16:51:50.379Z,5.8
2022-10-26T16:53:54.321Z,4.7
2022-10-26T16:55:58.274Z,4.9
2022-10-26T16:58:02.207Z,4.5
2022-10-26T17:00:06.168Z,4.5
2022-10-26T17:02:13.072Z,5.5
2022-10-26T17:04:16.868Z,4.9
2022-10-26T17:06:20.776Z,3.9
2022-10-26T17:10:28.663Z,4.5
2022-10-26T17:12:32.604Z,4.5
2022-10-26T17:14:36.544Z,3.5
2022-10-26T17:16:43.277Z,5
2022-10-26T17:18:47.248Z,3.9
2022-10-26T17:20:51.168Z,5
2022-10-26T17:22:55.089Z,3.6
2022-10-26T17:24:59.032Z,4
2022-10-26T17:27:02.980Z,5.5
2022-10-26T17:29:06.970Z,4.9
2022-10-26T17:31:13.681Z,4.1
2022-10-26T17:33:17.623Z,4
2022-10-26T17:35:21.540Z,3.1
2022-10-26T17:36:24.954Z,3.3
2022-10-26T17:38:28.863Z,3.7
2022-10-26T17:40:32.849Z,5.5
2022-10-26T17:42:38.273Z,5.6
2022-10-26T17:44:44.988Z,3.6
2022-10-26T17:46:48.948Z,5.5
2022-10-26T17:48:52.856Z,4.5
2022-10-26T17:50:56.806Z,4.9
2022-10-26T17:53:00.729Z,4.1
2022-10-26T17:55:04.675Z,4.4
2022-10-26T17:57:08.634Z,4.1
2022-10-26T18:01:19.458Z,5
2022-10-26T18:03:23.266Z,4.3
2022-10-26T18:05:27.201Z,4.8
2022-10-26T18:07:31.136Z,9
2022-10-26T18:09:35.071Z,6.5
2022-10-26T18:13:45.767Z,4
2022-10-26T18:15:49.695Z,21.8
2022-10-26T18:17:58.192Z,6.9
2022-10-26T18:22:01.504Z,7.5
2022-10-26T18:24:05.426Z,6.9
2022-10-26T18:26:11.434Z,6.2
2022-10-26T18:28:16.123Z,6.1
2022-10-26T18:30:20.069Z,4.1
2022-10-26T18:32:24.012Z,9.2
2022-10-26T18:36:57.614Z,3.5
2022-10-26T18:39:01.528Z,6.8
2022-10-26T18:41:08.271Z,4.4
2022-10-26T18:43:12.209Z,4
2022-10-26T18:45:16.173Z,4.5
2022-10-26T18:47:20.146Z,4.2
2022-10-26T18:49:24.020Z,2.7
2022-10-26T18:51:27.970Z,2.9
2022-10-26T18:53:31.923Z,7.3
2022-10-26T18:55:38.657Z,6.5
2022-10-26T18:57:42.594Z,10.8
2022-10-26T19:01:50.687Z,4.2
2022-10-26T19:03:54.395Z,4.5
2022-10-26T19:05:58.336Z,5
2022-10-26T19:08:02.259Z,3.5
2022-10-26T19:10:09.013Z,4.1
2022-10-26T19:12:12.936Z,4.9
2022-10-26T19:14:16.879Z,4.6
2022-10-26T19:16:33.239Z,4.3
2022-10-26T19:18:24.754Z,5.2
2022-10-26T19:20:28.666Z,3.6
2022-10-26T19:22:32.602Z,3.8
2022-10-26T19:24:39.359Z,5.1
2022-10-26T19:26:44.032Z,4.7
2022-10-26T19:28:47.240Z,3.5
2022-10-26T19:29:50.611Z,4.5
2022-10-26T19:31:54.539Z,3.5
2022-10-26T19:33:58.451Z,3.8
2022-10-26T19:36:02.394Z,4.5
2022-10-26T19:42:17.000Z,6
2022-10-26T19:44:24.480Z,4.6
2022-10-26T19:46:24.860Z,5
2022-10-26T19:48:28.812Z,5.2
2022-10-26T19:52:39.487Z,4.6
2022-10-26T19:54:43.402Z,4.5
2022-10-26T19:56:47.339Z,8.5
2022-10-26T19:58:51.284Z,6.9
2022-10-26T20:02:59.161Z,6.9
2022-10-26T20:05:03.070Z,6
2022-10-26T20:07:09.817Z,6.6
2022-10-26T20:09:13.833Z,6
2022-10-26T20:11:17.680Z,4.5
2022-10-26T20:13:21.607Z,4.2
2022-10-26T20:15:25.535Z,4.3
2022-10-26T20:17:29.566Z,4.7
2022-10-26T20:19:33.394Z,4.8
2022-10-26T20:21:40.146Z,4.9
2022-10-26T20:23:44.120Z,3.9
2022-10-26T20:25:48.013Z,4.8
2022-10-26T20:26:51.397Z,5.1
2022-10-26T20:39:17.769Z,3.9
2022-10-26T20:45:29.563Z,4.5
2022-10-26T20:47:33.493Z,4
2022-10-26T20:53:48.119Z,4.8
2022-10-26T20:59:59.898Z,4.3
2022-10-26T21:04:10.735Z,6.3
2022-10-26T21:06:14.505Z,5.3
2022-10-26T21:08:18.442Z,5.2
2022-10-26T21:10:22.371Z,6.7
2022-10-26T21:12:26.313Z,4
2022-10-26T21:14:30.241Z,4.6
2022-10-26T21:23:52.187Z,10.1
2022-10-26T21:25:56.129Z,6.8
2022-10-26T21:28:00.037Z,4.6
2022-10-26T21:30:03.967Z,4.5
2022-10-26T21:32:10.700Z,4.5
2022-10-26T21:34:14.643Z,9.5
2022-10-26T21:36:18.568Z,7.4
2022-10-26T21:38:22.509Z,8.5
2022-10-26T21:40:26.481Z,6.4
2022-10-26T21:42:30.405Z,3.8
2022-10-26T21:46:41.089Z,7.5
2022-10-26T21:48:45.019Z,7.3
2022-10-26T21:50:48.939Z,6.2
2022-10-26T21:52:53.152Z,5.9
2022-10-26T21:54:56.812Z,5.1
2022-10-26T21:57:00.747Z,12.4
2022-10-26T21:59:04.657Z,12.9
2022-10-26T22:01:11.603Z,10.7
2022-10-26T22:03:15.322Z,6
2022-10-26T22:05:19.260Z,5
2022-10-26T22:07:23.176Z,5.7
2022-10-26T22:09:27.097Z,7
2022-10-26T22:11:31.020Z,5.2
2022-10-26T22:13:34.952Z,12
2022-10-26T22:15:41.731Z,5.9
2022-10-26T22:17:45.628Z,6.3
2022-10-26T22:19:49.544Z,6.6
2022-10-26T22:22:13.331Z,6.3
2022-10-26T22:26:21.199Z,5.6
2022-10-26T22:28:29.343Z,7.4
2022-10-26T22:30:31.843Z,6.8
2022-10-26T22:32:35.778Z,5.8
2022-10-26T22:34:39.712Z,7.2
2022-10-26T22:36:43.631Z,6.3
2022-10-26T22:38:47.544Z,12.5
2022-10-26T22:40:51.465Z,6.5
2022-10-26T22:42:58.236Z,6.5
2022-10-26T22:45:02.187Z,6.2
2022-10-26T22:47:06.071Z,5.2
2022-10-26T22:49:09.982Z,10
2022-10-26T22:51:13.883Z,7.6
2022-10-26T22:53:17.822Z,6.3
2022-10-26T22:55:21.744Z,7.5
2022-10-26T22:57:28.468Z,6.4
2022-10-26T22:59:32.387Z,5.2
2022-10-26T23:01:36.416Z,5.6
2022-10-26T23:03:40.257Z,5.2
2022-10-26T23:05:44.158Z,5.3
2022-10-26T23:07:48.582Z,5.5
2022-10-26T23:09:52.016Z,7.3
2022-10-26T23:11:58.733Z,5.8
2022-10-26T23:14:02.674Z,6.8
2022-10-26T23:16:06.573Z,5.3
2022-10-26T23:19:13.845Z,6.2
2022-10-26T23:23:21.698Z,5.4
2022-10-26T23:25:28.440Z,6.4
2022-10-26T23:27:32.345Z,5.8
2022-10-26T23:29:36.314Z,4.8
2022-10-26T23:33:44.085Z,7
2022-10-26T23:35:48.013Z,5.7
2022-10-26T23:37:51.933Z,5.2
2022-10-26T23:40:00.188Z,5.7
2022-10-26T23:42:04.082Z,6
2022-10-26T23:44:07.994Z,5.3
2022-10-26T23:46:11.987Z,5.6
2022-10-26T23:48:15.830Z,5.8
2022-10-26T23:50:19.762Z,5.6
2022-10-26T23:52:23.683Z,5.7
2022-10-26T23:54:30.415Z,6.2
2022-10-26T23:56:34.328Z,17.7
2022-10-26T23:58:38.251Z,11.8
